sensor_id;sensor_type;location;lat;lon;timestamp;P1;durP1;ratioP1;P2;durP2;ratioP2
30677;SDS011;17437;47.188;8.896;2023-03-01T00:02:14;29.70;;;16.85;;
30677;SDS011;17437;47.188;8.896;2023-03-01T00:04:46;31.65;;;20.50;;
30677;SDS011;17437;47.188;8.896;2023-03-01T00:07:17;34.23;;;19.70;;
30677;SDS011;17437;47.188;8.896;2023-03-01T00:09:49;34.75;;;20.17;;
30677;SDS011;17437;47.188;8.896;2023-03-01T00:12:20;35.20;;;20.80;;
30677;SDS011;17437;47.188;8.896;2023-03-01T00:14:52;29.18;;;16.95;;
30677;SDS011;17437;47.188;8.896;2023-03-01T00:17:23;34.55;;;20.23;;
30677;SDS011;17437;47.188;8.896;2023-03-01T00:19:55;28.73;;;18.05;;
30677;SDS011;17437;47.188;8.896;2023-03-01T00:22:26;27.42;;;15.98;;
30677;SDS011;17437;47.188;8.896;2023-03-01T00:24:58;28.83;;;17.80;;
30677;SDS011;17437;47.188;8.896;2023-03-01T00:27:29;30.23;;;18.82;;
30677;SDS011;17437;47.188;8.896;2023-03-01T00:30:01;34.95;;;20.15;;
30677;SDS011;17437;47.188;8.896;2023-03-01T00:32:32;34.92;;;18.07;;
30677;SDS011;17437;47.188;8.896;2023-03-01T00:35:04;31.20;;;18.52;;
30677;SDS011;17437;47.188;8.896;2023-03-01T00:37:36;29.77;;;19.57;;
30677;SDS011;17437;47.188;8.896;2023-03-01T00:40:10;28.98;;;18.17;;
30677;SDS011;17437;47.188;8.896;2023-03-01T00:42:44;30.95;;;19.70;;
30677;SDS011;17437;47.188;8.896;2023-03-01T00:45:16;27.93;;;15.85;;
30677;SDS011;17437;47.188;8.896;2023-03-01T00:47:48;31.57;;;19.82;;
30677;SDS011;17437;47.188;8.896;2023-03-01T00:50:20;33.02;;;18.07;;
30677;SDS011;17437;47.188;8.896;2023-03-01T00:52:52;34.00;;;22.00;;
30677;SDS011;17437;47.188;8.896;2023-03-01T00:55:25;34.48;;;20.08;;
30677;SDS011;17437;47.188;8.896;2023-03-01T00:57:56;31.77;;;18.20;;
30677;SDS011;17437;47.188;8.896;2023-03-01T01:00:28;33.50;;;19.92;;
30677;SDS011;17437;47.188;8.896;2023-03-01T01:02:59;31.00;;;18.15;;
30677;SDS011;17437;47.188;8.896;2023-03-01T01:05:31;33.53;;;17.82;;
30677;SDS011;17437;47.188;8.896;2023-03-01T01:08:04;37.17;;;20.45;;
30677;SDS011;17437;47.188;8.896;2023-03-01T01:10:36;32.45;;;18.17;;
30677;SDS011;17437;47.188;8.896;2023-03-01T01:13:08;35.70;;;20.12;;
30677;SDS011;17437;47.188;8.896;2023-03-01T01:15:40;34.78;;;19.25;;
30677;SDS011;17437;47.188;8.896;2023-03-01T01:18:11;33.45;;;20.55;;
30677;SDS011;17437;47.188;8.896;2023-03-01T01:20:43;31.00;;;17.35;;
30677;SDS011;17437;47.188;8.896;2023-03-01T01:23:14;40.08;;;22.13;;
30677;SDS011;17437;47.188;8.896;2023-03-01T01:25:45;36.90;;;20.55;;
30677;SDS011;17437;47.188;8.896;2023-03-01T01:28:17;31.65;;;17.57;;
30677;SDS011;17437;47.188;8.896;2023-03-01T01:30:48;40.45;;;23.00;;
30677;SDS011;17437;47.188;8.896;2023-03-01T01:33:20;33.73;;;18.32;;
30677;SDS011;17437;47.188;8.896;2023-03-01T01:35:51;34.10;;;19.17;;
30677;SDS011;17437;47.188;8.896;2023-03-01T01:38:24;30.97;;;16.10;;
30677;SDS011;17437;47.188;8.896;2023-03-01T01:40:55;33.70;;;18.02;;
30677;SDS011;17437;47.188;8.896;2023-03-01T01:43:28;33.70;;;18.62;;
30677;SDS011;17437;47.188;8.896;2023-03-01T01:46:01;33.23;;;18.32;;
30677;SDS011;17437;47.188;8.896;2023-03-01T01:48:37;38.35;;;19.48;;
30677;SDS011;17437;47.188;8.896;2023-03-01T01:51:13;34.88;;;20.88;;
30677;SDS011;17437;47.188;8.896;2023-03-01T01:53:47;36.63;;;18.17;;
30677;SDS011;17437;47.188;8.896;2023-03-01T01:56:21;41.70;;;20.92;;
30677;SDS011;17437;47.188;8.896;2023-03-01T01:58:53;33.60;;;17.50;;
30677;SDS011;17437;47.188;8.896;2023-03-01T02:01:26;36.28;;;22.20;;
30677;SDS011;17437;47.188;8.896;2023-03-01T02:03:57;37.65;;;18.95;;
30677;SDS011;17437;47.188;8.896;2023-03-01T02:06:29;34.58;;;19.67;;
30677;SDS011;17437;47.188;8.896;2023-03-01T02:09:04;36.98;;;20.82;;
30677;SDS011;17437;47.188;8.896;2023-03-01T02:11:38;33.35;;;20.00;;
30677;SDS011;17437;47.188;8.896;2023-03-01T02:14:10;38.65;;;21.12;;
30677;SDS011;17437;47.188;8.896;2023-03-01T02:16:41;35.25;;;19.52;;
30677;SDS011;17437;47.188;8.896;2023-03-01T02:19:15;39.33;;;21.68;;
30677;SDS011;17437;47.188;8.896;2023-03-01T02:21:50;34.23;;;19.75;;
30677;SDS011;17437;47.188;8.896;2023-03-01T02:24:26;38.88;;;22.32;;
30677;SDS011;17437;47.188;8.896;2023-03-01T02:26:59;35.38;;;17.90;;
30677;SDS011;17437;47.188;8.896;2023-03-01T02:29:31;30.27;;;17.52;;
30677;SDS011;17437;47.188;8.896;2023-03-01T02:32:03;35.68;;;18.02;;
30677;SDS011;17437;47.188;8.896;2023-03-01T02:34:35;33.08;;;21.25;;
30677;SDS011;17437;47.188;8.896;2023-03-01T02:37:09;38.28;;;20.90;;
30677;SDS011;17437;47.188;8.896;2023-03-01T02:39:44;34.43;;;19.52;;
30677;SDS011;17437;47.188;8.896;2023-03-01T02:42:20;33.15;;;18.17;;
30677;SDS011;17437;47.188;8.896;2023-03-01T02:44:55;31.17;;;17.82;;
30677;SDS011;17437;47.188;8.896;2023-03-01T02:47:26;30.43;;;17.35;;
30677;SDS011;17437;47.188;8.896;2023-03-01T02:49:57;33.00;;;20.10;;
30677;SDS011;17437;47.188;8.896;2023-03-01T02:52:33;32.65;;;19.37;;
30677;SDS011;17437;47.188;8.896;2023-03-01T02:55:11;32.60;;;19.60;;
30677;SDS011;17437;47.188;8.896;2023-03-01T02:57:45;39.60;;;21.15;;
30677;SDS011;17437;47.188;8.896;2023-03-01T03:00:20;35.73;;;20.95;;
30677;SDS011;17437;47.188;8.896;2023-03-01T03:02:54;34.80;;;19.00;;
30677;SDS011;17437;47.188;8.896;2023-03-01T03:05:27;32.17;;;19.73;;
30677;SDS011;17437;47.188;8.896;2023-03-01T03:08:02;35.45;;;20.08;;
30677;SDS011;17437;47.188;8.896;2023-03-01T03:10:35;33.42;;;17.82;;
30677;SDS011;17437;47.188;8.896;2023-03-01T03:13:09;35.17;;;19.73;;
30677;SDS011;17437;47.188;8.896;2023-03-01T03:15:42;35.60;;;20.45;;
30677;SDS011;17437;47.188;8.896;2023-03-01T03:18:15;33.63;;;18.48;;
30677;SDS011;17437;47.188;8.896;2023-03-01T03:20:48;30.35;;;18.67;;
30677;SDS011;17437;47.188;8.896;2023-03-01T03:23:21;31.10;;;18.30;;
30677;SDS011;17437;47.188;8.896;2023-03-01T03:25:53;34.83;;;19.27;;
30677;SDS011;17437;47.188;8.896;2023-03-01T03:28:24;34.95;;;19.80;;
30677;SDS011;17437;47.188;8.896;2023-03-01T03:30:56;30.20;;;17.35;;
30677;SDS011;17437;47.188;8.896;2023-03-01T03:33:29;36.88;;;19.80;;
30677;SDS011;17437;47.188;8.896;2023-03-01T03:36:01;38.35;;;19.95;;
30677;SDS011;17437;47.188;8.896;2023-03-01T03:38:32;33.38;;;17.45;;
30677;SDS011;17437;47.188;8.896;2023-03-01T03:41:05;33.75;;;19.23;;
30677;SDS011;17437;47.188;8.896;2023-03-01T03:43:38;39.18;;;21.05;;
30677;SDS011;17437;47.188;8.896;2023-03-01T03:46:11;40.80;;;20.20;;
30677;SDS011;17437;47.188;8.896;2023-03-01T03:48:44;32.55;;;17.65;;
30677;SDS011;17437;47.188;8.896;2023-03-01T03:51:16;34.33;;;19.80;;
30677;SDS011;17437;47.188;8.896;2023-03-01T03:53:48;38.17;;;20.12;;
30677;SDS011;17437;47.188;8.896;2023-03-01T03:56:20;35.75;;;21.20;;
30677;SDS011;17437;47.188;8.896;2023-03-01T03:58:55;35.05;;;20.37;;
30677;SDS011;17437;47.188;8.896;2023-03-01T04:01:27;34.23;;;19.52;;
30677;SDS011;17437;47.188;8.896;2023-03-01T04:03:59;36.73;;;21.05;;
30677;SDS011;17437;47.188;8.896;2023-03-01T04:06:33;43.90;;;24.55;;
30677;SDS011;17437;47.188;8.896;2023-03-01T04:09:04;33.13;;;18.50;;
30677;SDS011;17437;47.188;8.896;2023-03-01T04:11:36;33.23;;;21.20;;
30677;SDS011;17437;47.188;8.896;2023-03-01T04:14:07;41.55;;;22.13;;
30677;SDS011;17437;47.188;8.896;2023-03-01T04:16:39;33.45;;;20.82;;
30677;SDS011;17437;47.188;8.896;2023-03-01T04:19:11;38.40;;;19.98;;
30677;SDS011;17437;47.188;8.896;2023-03-01T04:21:44;36.68;;;20.92;;
30677;SDS011;17437;47.188;8.896;2023-03-01T04:24:15;40.35;;;24.07;;
30677;SDS011;17437;47.188;8.896;2023-03-01T04:26:47;35.45;;;20.68;;
30677;SDS011;17437;47.188;8.896;2023-03-01T04:29:34;43.02;;;24.50;;
30677;SDS011;17437;47.188;8.896;2023-03-01T04:32:05;38.78;;;21.07;;
30677;SDS011;17437;47.188;8.896;2023-03-01T04:34:37;38.35;;;21.95;;
30677;SDS011;17437;47.188;8.896;2023-03-01T04:37:09;43.55;;;24.02;;
30677;SDS011;17437;47.188;8.896;2023-03-01T04:39:40;39.25;;;22.30;;
30677;SDS011;17437;47.188;8.896;2023-03-01T04:42:14;46.05;;;24.52;;
30677;SDS011;17437;47.188;8.896;2023-03-01T04:44:46;40.30;;;21.77;;
30677;SDS011;17437;47.188;8.896;2023-03-01T04:47:19;38.00;;;22.25;;
30677;SDS011;17437;47.188;8.896;2023-03-01T04:49:51;36.88;;;19.55;;
30677;SDS011;17437;47.188;8.896;2023-03-01T04:52:22;40.90;;;22.37;;
30677;SDS011;17437;47.188;8.896;2023-03-01T04:54:53;37.08;;;22.27;;
30677;SDS011;17437;47.188;8.896;2023-03-01T04:57:25;36.63;;;21.35;;
30677;SDS011;17437;47.188;8.896;2023-03-01T04:59:56;35.13;;;19.37;;
30677;SDS011;17437;47.188;8.896;2023-03-01T05:02:28;41.92;;;22.45;;
30677;SDS011;17437;47.188;8.896;2023-03-01T05:04:59;43.48;;;22.90;;
30677;SDS011;17437;47.188;8.896;2023-03-01T05:07:31;38.35;;;20.77;;
30677;SDS011;17437;47.188;8.896;2023-03-01T05:10:03;49.35;;;26.97;;
30677;SDS011;17437;47.188;8.896;2023-03-01T05:12:35;41.95;;;23.18;;
30677;SDS011;17437;47.188;8.896;2023-03-01T05:15:07;37.88;;;20.37;;
30677;SDS011;17437;47.188;8.896;2023-03-01T05:17:40;40.38;;;25.40;;
30677;SDS011;17437;47.188;8.896;2023-03-01T05:20:11;39.98;;;23.05;;
30677;SDS011;17437;47.188;8.896;2023-03-01T05:22:43;43.40;;;24.05;;
30677;SDS011;17437;47.188;8.896;2023-03-01T05:25:15;38.95;;;24.63;;
30677;SDS011;17437;47.188;8.896;2023-03-01T05:27:46;39.40;;;20.72;;
30677;SDS011;17437;47.188;8.896;2023-03-01T05:30:18;42.38;;;25.57;;
30677;SDS011;17437;47.188;8.896;2023-03-01T05:32:50;43.13;;;24.00;;
30677;SDS011;17437;47.188;8.896;2023-03-01T05:35:23;39.67;;;21.50;;
30677;SDS011;17437;47.188;8.896;2023-03-01T05:37:55;40.23;;;25.08;;
30677;SDS011;17437;47.188;8.896;2023-03-01T05:40:26;39.70;;;22.25;;
30677;SDS011;17437;47.188;8.896;2023-03-01T05:42:58;40.95;;;25.37;;
30677;SDS011;17437;47.188;8.896;2023-03-01T05:45:29;39.05;;;22.45;;
30677;SDS011;17437;47.188;8.896;2023-03-01T05:48:02;41.98;;;24.05;;
30677;SDS011;17437;47.188;8.896;2023-03-01T05:50:35;41.77;;;24.35;;
30677;SDS011;17437;47.188;8.896;2023-03-01T05:53:09;44.55;;;22.27;;
30677;SDS011;17437;47.188;8.896;2023-03-01T05:55:42;45.78;;;24.25;;
30677;SDS011;17437;47.188;8.896;2023-03-01T05:58:16;41.13;;;22.52;;
30677;SDS011;17437;47.188;8.896;2023-03-01T06:00:49;45.60;;;23.38;;
30677;SDS011;17437;47.188;8.896;2023-03-01T06:03:22;42.08;;;23.18;;
30677;SDS011;17437;47.188;8.896;2023-03-01T06:05:55;39.45;;;21.97;;
30677;SDS011;17437;47.188;8.896;2023-03-01T06:08:27;37.55;;;22.90;;
30677;SDS011;17437;47.188;8.896;2023-03-01T06:10:59;40.92;;;23.52;;
30677;SDS011;17437;47.188;8.896;2023-03-01T06:13:30;40.33;;;24.47;;
30677;SDS011;17437;47.188;8.896;2023-03-01T06:24:13;37.23;;;19.77;;
30677;SDS011;17437;47.188;8.896;2023-03-01T06:26:45;41.50;;;24.25;;
30677;SDS011;17437;47.188;8.896;2023-03-01T06:29:16;42.25;;;20.60;;
30677;SDS011;17437;47.188;8.896;2023-03-01T06:31:48;34.65;;;21.15;;
30677;SDS011;17437;47.188;8.896;2023-03-01T06:34:19;38.65;;;22.27;;
30677;SDS011;17437;47.188;8.896;2023-03-01T06:36:51;41.00;;;22.10;;
30677;SDS011;17437;47.188;8.896;2023-03-01T06:39:22;35.63;;;18.70;;
30677;SDS011;17437;47.188;8.896;2023-03-01T06:41:54;39.95;;;22.52;;
30677;SDS011;17437;47.188;8.896;2023-03-01T06:46:55;39.03;;;20.12;;
30677;SDS011;17437;47.188;8.896;2023-03-01T06:49:27;37.17;;;21.60;;
30677;SDS011;17437;47.188;8.896;2023-03-01T06:51:59;43.70;;;21.80;;
30677;SDS011;17437;47.188;8.896;2023-03-01T06:54:30;38.50;;;20.92;;
30677;SDS011;17437;47.188;8.896;2023-03-01T06:57:02;39.58;;;21.45;;
30677;SDS011;17437;47.188;8.896;2023-03-01T06:59:33;41.68;;;23.70;;
30677;SDS011;17437;47.188;8.896;2023-03-01T07:02:05;41.08;;;22.37;;
30677;SDS011;17437;47.188;8.896;2023-03-01T07:04:39;39.05;;;21.02;;
30677;SDS011;17437;47.188;8.896;2023-03-01T07:07:15;38.33;;;22.98;;
30677;SDS011;17437;47.188;8.896;2023-03-01T07:09:48;37.03;;;21.12;;
30677;SDS011;17437;47.188;8.896;2023-03-01T07:12:19;40.78;;;22.75;;
30677;SDS011;17437;47.188;8.896;2023-03-01T07:14:51;36.33;;;20.80;;
30677;SDS011;17437;47.188;8.896;2023-03-01T07:17:22;39.67;;;24.20;;
30677;SDS011;17437;47.188;8.896;2023-03-01T07:19:54;43.92;;;21.90;;
30677;SDS011;17437;47.188;8.896;2023-03-01T07:22:26;32.08;;;19.85;;
30677;SDS011;17437;47.188;8.896;2023-03-01T07:24:57;36.80;;;19.50;;
30677;SDS011;17437;47.188;8.896;2023-03-01T07:27:29;42.45;;;21.27;;
30677;SDS011;17437;47.188;8.896;2023-03-01T07:30:00;38.17;;;20.88;;
30677;SDS011;17437;47.188;8.896;2023-03-01T07:32:32;34.40;;;20.05;;
30677;SDS011;17437;47.188;8.896;2023-03-01T07:35:05;33.70;;;21.15;;
30677;SDS011;17437;47.188;8.896;2023-03-01T07:37:37;32.53;;;18.75;;
30677;SDS011;17437;47.188;8.896;2023-03-01T07:40:10;37.35;;;19.52;;
30677;SDS011;17437;47.188;8.896;2023-03-01T07:42:42;36.05;;;18.73;;
30677;SDS011;17437;47.188;8.896;2023-03-01T07:45:13;41.60;;;22.98;;
30677;SDS011;17437;47.188;8.896;2023-03-01T07:47:45;34.80;;;18.23;;
30677;SDS011;17437;47.188;8.896;2023-03-01T07:50:16;36.90;;;18.00;;
30677;SDS011;17437;47.188;8.896;2023-03-01T07:52:49;40.58;;;21.48;;
30677;SDS011;17437;47.188;8.896;2023-03-01T07:55:20;35.73;;;21.52;;
30677;SDS011;17437;47.188;8.896;2023-03-01T07:57:52;42.23;;;21.00;;
30677;SDS011;17437;47.188;8.896;2023-03-01T08:00:23;34.78;;;20.45;;
30677;SDS011;17437;47.188;8.896;2023-03-01T08:02:55;34.48;;;18.30;;
30677;SDS011;17437;47.188;8.896;2023-03-01T08:05:30;34.23;;;19.65;;
30677;SDS011;17437;47.188;8.896;2023-03-01T08:08:02;32.75;;;20.55;;
30677;SDS011;17437;47.188;8.896;2023-03-01T08:10:33;30.68;;;18.42;;
30677;SDS011;17437;47.188;8.896;2023-03-01T08:13:05;31.60;;;17.48;;
30677;SDS011;17437;47.188;8.896;2023-03-01T08:15:37;35.43;;;18.62;;
30677;SDS011;17437;47.188;8.896;2023-03-01T08:18:08;32.70;;;18.40;;
30677;SDS011;17437;47.188;8.896;2023-03-01T08:20:40;30.77;;;17.98;;
30677;SDS011;17437;47.188;8.896;2023-03-01T08:23:12;32.42;;;18.35;;
30677;SDS011;17437;47.188;8.896;2023-03-01T08:25:46;33.80;;;19.00;;
30677;SDS011;17437;47.188;8.896;2023-03-01T08:28:17;39.05;;;19.17;;
30677;SDS011;17437;47.188;8.896;2023-03-01T08:30:50;31.42;;;17.82;;
30677;SDS011;17437;47.188;8.896;2023-03-01T08:33:21;32.63;;;19.57;;
30677;SDS011;17437;47.188;8.896;2023-03-01T08:36:01;30.90;;;17.37;;
30677;SDS011;17437;47.188;8.896;2023-03-01T08:38:33;32.13;;;19.00;;
30677;SDS011;17437;47.188;8.896;2023-03-01T08:41:05;32.13;;;17.45;;
30677;SDS011;17437;47.188;8.896;2023-03-01T08:43:36;36.58;;;19.10;;
30677;SDS011;17437;47.188;8.896;2023-03-01T08:46:07;37.48;;;19.70;;
30677;SDS011;17437;47.188;8.896;2023-03-01T08:48:39;29.67;;;18.10;;
30677;SDS011;17437;47.188;8.896;2023-03-01T08:51:12;37.45;;;20.57;;
30677;SDS011;17437;47.188;8.896;2023-03-01T08:53:50;33.20;;;17.02;;
30677;SDS011;17437;47.188;8.896;2023-03-01T08:56:34;32.00;;;18.23;;
30677;SDS011;17437;47.188;8.896;2023-03-01T08:59:05;33.75;;;16.60;;
30677;SDS011;17437;47.188;8.896;2023-03-01T09:01:37;29.40;;;17.77;;
30677;SDS011;17437;47.188;8.896;2023-03-01T09:04:11;33.13;;;16.12;;
30677;SDS011;17437;47.188;8.896;2023-03-01T09:06:44;27.90;;;15.72;;
30677;SDS011;17437;47.188;8.896;2023-03-01T09:09:16;33.92;;;18.92;;
30677;SDS011;17437;47.188;8.896;2023-03-01T09:11:48;28.90;;;16.52;;
30677;SDS011;17437;47.188;8.896;2023-03-01T09:14:25;31.75;;;18.77;;
30677;SDS011;17437;47.188;8.896;2023-03-01T09:16:56;29.27;;;16.82;;
30677;SDS011;17437;47.188;8.896;2023-03-01T09:19:29;40.92;;;18.45;;
30677;SDS011;17437;47.188;8.896;2023-03-01T09:22:02;31.90;;;18.40;;
30677;SDS011;17437;47.188;8.896;2023-03-01T09:24:34;29.60;;;16.35;;
30677;SDS011;17437;47.188;8.896;2023-03-01T09:27:05;29.82;;;16.80;;
30677;SDS011;17437;47.188;8.896;2023-03-01T09:29:37;30.02;;;19.15;;
30677;SDS011;17437;47.188;8.896;2023-03-01T09:32:09;31.17;;;19.02;;
30677;SDS011;17437;47.188;8.896;2023-03-01T09:34:41;30.62;;;18.12;;
30677;SDS011;17437;47.188;8.896;2023-03-01T09:37:34;32.65;;;19.10;;
30677;SDS011;17437;47.188;8.896;2023-03-01T09:40:09;31.48;;;17.20;;
30677;SDS011;17437;47.188;8.896;2023-03-01T09:42:46;29.63;;;18.07;;
30677;SDS011;17437;47.188;8.896;2023-03-01T09:45:29;30.37;;;17.42;;
30677;SDS011;17437;47.188;8.896;2023-03-01T09:48:16;30.75;;;18.20;;
30677;SDS011;17437;47.188;8.896;2023-03-01T09:53:31;30.35;;;17.55;;
30677;SDS011;17437;47.188;8.896;2023-03-01T09:56:05;30.95;;;17.77;;
30677;SDS011;17437;47.188;8.896;2023-03-01T09:58:41;31.42;;;19.15;;
30677;SDS011;17437;47.188;8.896;2023-03-01T10:01:28;30.92;;;17.73;;
30677;SDS011;17437;47.188;8.896;2023-03-01T10:04:24;30.62;;;16.95;;
30677;SDS011;17437;47.188;8.896;2023-03-01T10:07:05;33.25;;;18.73;;
30677;SDS011;17437;47.188;8.896;2023-03-01T10:09:41;34.48;;;19.42;;
30677;SDS011;17437;47.188;8.896;2023-03-01T10:12:15;33.15;;;18.92;;
30677;SDS011;17437;47.188;8.896;2023-03-01T10:14:50;33.25;;;18.55;;
30677;SDS011;17437;47.188;8.896;2023-03-01T10:17:27;33.60;;;19.15;;
30677;SDS011;17437;47.188;8.896;2023-03-01T10:20:10;27.85;;;16.82;;
30677;SDS011;17437;47.188;8.896;2023-03-01T10:22:47;32.63;;;18.12;;
30677;SDS011;17437;47.188;8.896;2023-03-01T10:25:23;33.40;;;18.02;;
30677;SDS011;17437;47.188;8.896;2023-03-01T10:28:02;30.15;;;18.00;;
30677;SDS011;17437;47.188;8.896;2023-03-01T10:30:35;33.38;;;20.17;;
30677;SDS011;17437;47.188;8.896;2023-03-01T10:33:13;36.40;;;20.72;;
30677;SDS011;17437;47.188;8.896;2023-03-01T10:35:47;32.63;;;18.20;;
30677;SDS011;17437;47.188;8.896;2023-03-01T10:38:19;37.35;;;20.52;;
30677;SDS011;17437;47.188;8.896;2023-03-01T10:40:52;28.17;;;16.32;;
30677;SDS011;17437;47.188;8.896;2023-03-01T10:43:32;33.90;;;19.35;;
30677;SDS011;17437;47.188;8.896;2023-03-01T10:46:04;27.40;;;16.73;;
30677;SDS011;17437;47.188;8.896;2023-03-01T10:48:45;30.68;;;18.45;;
30677;SDS011;17437;47.188;8.896;2023-03-01T10:51:18;29.37;;;17.12;;
30677;SDS011;17437;47.188;8.896;2023-03-01T10:53:49;48.98;;;26.73;;
30677;SDS011;17437;47.188;8.896;2023-03-01T10:56:21;31.20;;;20.48;;
30677;SDS011;17437;47.188;8.896;2023-03-01T10:58:58;29.55;;;18.67;;
30677;SDS011;17437;47.188;8.896;2023-03-01T11:04:20;32.28;;;18.60;;
30677;SDS011;17437;47.188;8.896;2023-03-01T11:06:57;30.40;;;16.90;;
30677;SDS011;17437;47.188;8.896;2023-03-01T11:09:31;27.67;;;18.00;;
30677;SDS011;17437;47.188;8.896;2023-03-01T11:12:13;34.05;;;18.98;;
30677;SDS011;17437;47.188;8.896;2023-03-01T11:14:46;29.67;;;17.60;;
30677;SDS011;17437;47.188;8.896;2023-03-01T11:17:21;30.75;;;17.50;;
30677;SDS011;17437;47.188;8.896;2023-03-01T11:20:01;30.32;;;17.10;;
30677;SDS011;17437;47.188;8.896;2023-03-01T11:22:35;28.35;;;16.05;;
30677;SDS011;17437;47.188;8.896;2023-03-01T11:25:08;27.02;;;15.78;;
30677;SDS011;17437;47.188;8.896;2023-03-01T11:27:43;30.68;;;16.12;;
30677;SDS011;17437;47.188;8.896;2023-03-01T11:30:18;28.73;;;18.10;;
30677;SDS011;17437;47.188;8.896;2023-03-01T11:32:53;27.77;;;15.05;;
30677;SDS011;17437;47.188;8.896;2023-03-01T11:35:27;28.75;;;16.75;;
30677;SDS011;17437;47.188;8.896;2023-03-01T11:38:04;28.40;;;18.32;;
30677;SDS011;17437;47.188;8.896;2023-03-01T11:40:43;27.62;;;16.02;;
30677;SDS011;17437;47.188;8.896;2023-03-01T11:43:19;29.60;;;17.42;;
30677;SDS011;17437;47.188;8.896;2023-03-01T11:49:04;31.17;;;18.87;;
30677;SDS011;17437;47.188;8.896;2023-03-01T11:51:42;28.17;;;16.62;;
30677;SDS011;17437;47.188;8.896;2023-03-01T11:54:20;27.90;;;17.55;;
30677;SDS011;17437;47.188;8.896;2023-03-01T11:56:57;23.22;;;15.05;;
30677;SDS011;17437;47.188;8.896;2023-03-01T11:59:41;30.00;;;17.02;;
30677;SDS011;17437;47.188;8.896;2023-03-01T12:02:56;24.87;;;15.23;;
30677;SDS011;17437;47.188;8.896;2023-03-01T12:11:49;24.85;;;14.58;;
30677;SDS011;17437;47.188;8.896;2023-03-01T12:14:34;30.70;;;18.15;;
30677;SDS011;17437;47.188;8.896;2023-03-01T12:17:27;26.12;;;17.48;;
30677;SDS011;17437;47.188;8.896;2023-03-01T12:20:16;27.70;;;14.83;;
30677;SDS011;17437;47.188;8.896;2023-03-01T12:22:59;29.35;;;16.87;;
30677;SDS011;17437;47.188;8.896;2023-03-01T12:25:36;24.52;;;14.93;;
30677;SDS011;17437;47.188;8.896;2023-03-01T12:28:16;24.52;;;14.68;;
30677;SDS011;17437;47.188;8.896;2023-03-01T12:30:55;27.27;;;15.70;;
30677;SDS011;17437;47.188;8.896;2023-03-01T12:33:42;24.75;;;15.05;;
30677;SDS011;17437;47.188;8.896;2023-03-01T12:36:23;29.27;;;18.73;;
30677;SDS011;17437;47.188;8.896;2023-03-01T12:39:07;28.02;;;17.25;;
30677;SDS011;17437;47.188;8.896;2023-03-01T12:41:46;27.45;;;16.75;;
30677;SDS011;17437;47.188;8.896;2023-03-01T12:44:23;27.80;;;14.85;;
30677;SDS011;17437;47.188;8.896;2023-03-01T12:47:11;24.30;;;14.18;;
30677;SDS011;17437;47.188;8.896;2023-03-01T12:49:48;24.95;;;14.45;;
30677;SDS011;17437;47.188;8.896;2023-03-01T12:52:22;25.72;;;16.15;;
30677;SDS011;17437;47.188;8.896;2023-03-01T12:54:56;27.17;;;17.00;;
30677;SDS011;17437;47.188;8.896;2023-03-01T12:57:30;28.73;;;16.73;;
30677;SDS011;17437;47.188;8.896;2023-03-01T13:00:09;25.97;;;16.40;;
30677;SDS011;17437;47.188;8.896;2023-03-01T13:02:45;22.42;;;15.08;;
30677;SDS011;17437;47.188;8.896;2023-03-01T13:05:22;25.97;;;17.25;;
30677;SDS011;17437;47.188;8.896;2023-03-01T13:08:00;27.60;;;16.05;;
30677;SDS011;17437;47.188;8.896;2023-03-01T13:10:34;24.00;;;13.90;;
30677;SDS011;17437;47.188;8.896;2023-03-01T13:13:14;20.80;;;13.85;;
30677;SDS011;17437;47.188;8.896;2023-03-01T13:15:50;26.00;;;14.75;;
30677;SDS011;17437;47.188;8.896;2023-03-01T13:18:32;29.60;;;15.38;;
30677;SDS011;17437;47.188;8.896;2023-03-01T13:21:04;26.12;;;14.00;;
30677;SDS011;17437;47.188;8.896;2023-03-01T13:23:37;25.45;;;15.72;;
30677;SDS011;17437;47.188;8.896;2023-03-01T13:26:11;22.93;;;14.87;;
30677;SDS011;17437;47.188;8.896;2023-03-01T13:28:48;25.17;;;15.75;;
30677;SDS011;17437;47.188;8.896;2023-03-01T13:34:48;27.22;;;15.75;;
30677;SDS011;17437;47.188;8.896;2023-03-01T13:37:31;23.47;;;14.93;;
30677;SDS011;17437;47.188;8.896;2023-03-01T13:40:05;23.57;;;14.03;;
30677;SDS011;17437;47.188;8.896;2023-03-01T13:45:54;28.90;;;16.87;;
30677;SDS011;17437;47.188;8.896;2023-03-01T13:48:28;27.75;;;16.42;;
30677;SDS011;17437;47.188;8.896;2023-03-01T13:51:02;29.27;;;17.05;;
30677;SDS011;17437;47.188;8.896;2023-03-01T13:53:35;27.52;;;17.00;;
30677;SDS011;17437;47.188;8.896;2023-03-01T13:56:10;25.27;;;15.78;;
30677;SDS011;17437;47.188;8.896;2023-03-01T13:58:46;26.30;;;14.45;;
30677;SDS011;17437;47.188;8.896;2023-03-01T14:01:24;22.62;;;13.78;;
30677;SDS011;17437;47.188;8.896;2023-03-01T14:03:58;21.25;;;12.45;;
30677;SDS011;17437;47.188;8.896;2023-03-01T14:06:31;28.80;;;15.15;;
30677;SDS011;17437;47.188;8.896;2023-03-01T14:09:05;30.25;;;18.67;;
30677;SDS011;17437;47.188;8.896;2023-03-01T14:11:52;23.15;;;14.55;;
30677;SDS011;17437;47.188;8.896;2023-03-01T14:14:56;31.20;;;16.35;;
30677;SDS011;17437;47.188;8.896;2023-03-01T14:20:25;27.50;;;16.27;;
30677;SDS011;17437;47.188;8.896;2023-03-01T14:22:59;28.83;;;16.32;;
30677;SDS011;17437;47.188;8.896;2023-03-01T14:25:33;26.73;;;15.50;;
30677;SDS011;17437;47.188;8.896;2023-03-01T14:28:13;24.65;;;14.80;;
30677;SDS011;17437;47.188;8.896;2023-03-01T14:30:47;23.55;;;15.43;;
30677;SDS011;17437;47.188;8.896;2023-03-01T14:33:22;22.67;;;15.43;;
30677;SDS011;17437;47.188;8.896;2023-03-01T14:35:58;25.88;;;16.70;;
30677;SDS011;17437;47.188;8.896;2023-03-01T14:38:33;25.72;;;16.10;;
30677;SDS011;17437;47.188;8.896;2023-03-01T14:41:07;20.62;;;13.45;;
30677;SDS011;17437;47.188;8.896;2023-03-01T14:43:41;24.70;;;14.13;;
30677;SDS011;17437;47.188;8.896;2023-03-01T14:46:20;27.75;;;17.40;;
30677;SDS011;17437;47.188;8.896;2023-03-01T14:48:54;21.97;;;13.72;;
30677;SDS011;17437;47.188;8.896;2023-03-01T14:51:28;20.27;;;13.28;;
30677;SDS011;17437;47.188;8.896;2023-03-01T14:54:00;21.70;;;13.65;;
30677;SDS011;17437;47.188;8.896;2023-03-01T14:56:38;30.60;;;16.32;;
30677;SDS011;17437;47.188;8.896;2023-03-01T14:59:15;24.10;;;15.55;;
30677;SDS011;17437;47.188;8.896;2023-03-01T15:01:48;21.42;;;12.68;;
30677;SDS011;17437;47.188;8.896;2023-03-01T15:04:20;23.95;;;13.13;;
30677;SDS011;17437;47.188;8.896;2023-03-01T15:06:55;20.50;;;13.40;;
30677;SDS011;17437;47.188;8.896;2023-03-01T15:09:30;20.10;;;12.85;;
30677;SDS011;17437;47.188;8.896;2023-03-01T15:15:21;25.52;;;14.28;;
30677;SDS011;17437;47.188;8.896;2023-03-01T15:17:59;24.15;;;14.38;;
30677;SDS011;17437;47.188;8.896;2023-03-01T15:20:31;24.35;;;13.65;;
30677;SDS011;17437;47.188;8.896;2023-03-01T15:23:05;23.50;;;14.35;;
30677;SDS011;17437;47.188;8.896;2023-03-01T15:25:43;22.50;;;13.18;;
30677;SDS011;17437;47.188;8.896;2023-03-01T15:28:17;23.87;;;14.83;;
30677;SDS011;17437;47.188;8.896;2023-03-01T15:30:53;26.95;;;15.60;;
30677;SDS011;17437;47.188;8.896;2023-03-01T15:33:32;22.67;;;15.72;;
30677;SDS011;17437;47.188;8.896;2023-03-01T15:39:37;28.15;;;14.30;;
30677;SDS011;17437;47.188;8.896;2023-03-01T15:42:12;18.52;;;11.12;;
30677;SDS011;17437;47.188;8.896;2023-03-01T15:44:45;21.90;;;14.50;;